createdAt,value
2023-03-11T00:00:33.050Z,4.13
2023-03-11T00:03:03.371Z,6.77
2023-03-11T00:05:33.591Z,7.13
2023-03-11T00:08:02.705Z,5.47
2023-03-11T00:10:34.229Z,9.53
2023-03-11T00:13:03.122Z,6.40
2023-03-11T00:15:34.512Z,5.17
2023-03-11T00:18:02.831Z,2.73
2023-03-11T00:20:32.884Z,4.57
2023-03-11T00:23:01.373Z,2.60
2023-03-11T00:25:31.348Z,2.53
2023-03-11T00:28:05.006Z,8.80
2023-03-11T00:30:33.138Z,5.40
2023-03-11T00:33:01.618Z,5.63
2023-03-11T00:35:31.994Z,6.67
2023-03-11T00:38:04.913Z,5.43
2023-03-11T00:40:34.871Z,8.63
2023-03-11T00:43:04.931Z,3.77
2023-03-11T00:45:36.335Z,4.37
2023-03-11T00:48:07.971Z,6.20
2023-03-11T00:50:38.089Z,3.03
2023-03-11T00:53:07.314Z,5.83
2023-03-11T00:55:36.722Z,6.00
2023-03-11T00:58:08.093Z,4.47
2023-03-11T01:00:42.701Z,5.37
2023-03-11T01:03:11.367Z,6.03
2023-03-11T01:05:39.810Z,4.50
2023-03-11T01:08:07.947Z,6.47
2023-03-11T01:10:36.747Z,4.40
2023-03-11T01:13:06.245Z,5.70
2023-03-11T01:15:37.291Z,6.00
2023-03-11T01:18:06.946Z,6.67
2023-03-11T01:20:35.384Z,4.87
2023-03-11T01:23:03.456Z,3.97
2023-03-11T01:25:31.446Z,2.53
2023-03-11T01:27:59.849Z,5.10
2023-03-11T01:30:30.715Z,5.33
2023-03-11T01:32:59.514Z,6.47
2023-03-11T01:35:29.866Z,5.77
2023-03-11T01:37:59.254Z,3.30
2023-03-11T01:40:31.408Z,2.70
2023-03-11T01:42:59.831Z,4.70
2023-03-11T01:46:03.603Z,9.37
2023-03-11T01:48:33.097Z,5.17
2023-03-11T01:51:01.975Z,8.73
2023-03-11T01:53:30.427Z,6.40
2023-03-11T01:55:59.159Z,3.33
2023-03-11T01:58:32.373Z,4.17
2023-03-11T02:01:02.147Z,5.50
2023-03-11T02:03:34.619Z,8.10
2023-03-11T02:06:06.862Z,4.30
2023-03-11T02:08:35.426Z,5.60
2023-03-11T02:11:06.799Z,7.43
2023-03-11T02:13:36.299Z,3.90
2023-03-11T02:16:05.774Z,6.83
2023-03-11T02:18:35.333Z,5.20
2023-03-11T02:21:12.805Z,2.97
2023-03-11T02:23:47.572Z,5.03
2023-03-11T02:26:21.172Z,7.60
2023-03-11T02:28:53.715Z,7.43
2023-03-11T02:31:23.200Z,5.00
2023-03-11T02:33:53.995Z,4.70
2023-03-11T02:36:39.816Z,6.77
2023-03-11T02:39:08.919Z,6.17
2023-03-11T02:41:40.011Z,5.33
2023-03-11T02:44:12.589Z,6.53
2023-03-11T02:46:43.627Z,3.63
2023-03-11T02:49:12.769Z,5.90
2023-03-11T02:51:41.008Z,2.93
2023-03-11T02:54:09.270Z,4.13
2023-03-11T02:56:37.527Z,2.53
2023-03-11T02:59:06.058Z,4.17
2023-03-11T03:01:37.893Z,4.57
2023-03-11T03:04:08.052Z,6.57
2023-03-11T03:06:37.018Z,3.97
2023-03-11T03:09:05.520Z,7.30
2023-03-11T03:11:33.905Z,8.47
2023-03-11T03:14:02.072Z,6.20
2023-03-11T03:16:30.248Z,2.57
2023-03-11T03:18:59.831Z,3.73
2023-03-11T03:21:27.949Z,5.37
2023-03-11T03:23:56.208Z,4.60
2023-03-11T03:26:24.610Z,6.33
2023-03-11T03:28:52.836Z,3.60
2023-03-11T03:31:21.027Z,3.03
2023-03-11T03:33:49.153Z,5.17
2023-03-11T03:36:18.587Z,5.97
2023-03-11T03:38:46.865Z,6.03
2023-03-11T03:41:16.035Z,4.77
2023-03-11T03:43:44.280Z,5.23
2023-03-11T03:46:12.306Z,5.27
2023-03-11T03:48:40.611Z,5.13
2023-03-11T03:51:10.396Z,5.17
2023-03-11T03:53:40.410Z,7.43
2023-03-11T03:56:10.940Z,4.30
2023-03-11T03:58:39.388Z,1.80
2023-03-11T04:01:09.156Z,4.03
2023-03-11T04:03:38.964Z,4.07
2023-03-11T04:06:08.844Z,3.87
2023-03-11T04:08:38.223Z,1.97
2023-03-11T04:11:07.822Z,7.43
2023-03-11T04:13:36.185Z,4.93
2023-03-11T04:16:05.350Z,2.57
2023-03-11T04:18:34.802Z,4.67
2023-03-11T04:21:06.994Z,7.87
2023-03-11T04:23:35.851Z,2.93
2023-03-11T04:26:04.663Z,8.60
2023-03-11T04:28:34.804Z,3.40
2023-03-11T04:31:03.718Z,3.60
2023-03-11T04:33:32.151Z,8.30
2023-03-11T04:36:00.285Z,9.07
2023-03-11T04:38:28.549Z,5.33
2023-03-11T04:41:00.833Z,3.90
2023-03-11T04:43:29.130Z,2.20
2023-03-11T04:45:58.794Z,7.50
2023-03-11T04:48:27.643Z,4.30
2023-03-11T04:50:56.824Z,7.77
2023-03-11T04:53:27.264Z,5.87
2023-03-11T04:55:56.716Z,5.63
2023-03-11T04:58:25.163Z,6.23
2023-03-11T05:00:54.644Z,10.07
2023-03-11T05:03:24.400Z,7.63
2023-03-11T05:05:56.615Z,8.77
2023-03-11T05:08:24.899Z,8.27
2023-03-11T05:10:54.673Z,7.77
2023-03-11T05:13:23.197Z,5.90
2023-03-11T05:15:51.639Z,8.97
2023-03-11T05:18:20.239Z,6.87
2023-03-11T05:20:50.320Z,8.63
2023-03-11T05:23:18.875Z,6.77
2023-03-11T05:25:47.379Z,8.03
2023-03-11T05:28:15.918Z,10.13
2023-03-11T05:30:44.105Z,16.90
2023-03-11T05:33:13.454Z,21.40
2023-03-11T05:35:42.893Z,21.47
2023-03-11T05:38:12.569Z,17.70
2023-03-11T05:40:40.650Z,19.57
2023-03-11T05:43:08.823Z,18.90
2023-03-11T05:45:36.866Z,18.10
2023-03-11T05:48:05.149Z,16.93
2023-03-11T05:50:33.264Z,17.40
2023-03-11T05:53:01.931Z,15.93
2023-03-11T05:55:31.752Z,18.63
2023-03-11T05:58:02.560Z,19.70
2023-03-11T06:00:30.893Z,20.03
2023-03-11T06:02:59.594Z,18.47
2023-03-11T06:05:29.806Z,18.03
2023-03-11T06:07:57.987Z,16.73
2023-03-11T06:10:26.139Z,14.60
2023-03-11T06:12:56.030Z,16.70
2023-03-11T06:15:24.082Z,17.77
2023-03-11T06:17:52.321Z,17.43
2023-03-11T06:20:21.393Z,16.90
2023-03-11T06:22:50.122Z,13.53
2023-03-11T06:25:20.348Z,15.50
2023-03-11T06:27:53.546Z,17.90
2023-03-11T06:30:26.031Z,17.83
2023-03-11T06:32:57.280Z,17.47
2023-03-11T06:35:26.129Z,17.10
2023-03-11T06:37:54.780Z,15.80
2023-03-11T06:40:23.582Z,14.13
2023-03-11T06:42:52.810Z,17.27
2023-03-11T06:45:23.782Z,20.10
2023-03-11T06:47:52.833Z,18.03
2023-03-11T06:50:23.893Z,16.27
2023-03-11T06:52:52.883Z,15.30
2023-03-11T06:55:21.574Z,15.67
2023-03-11T06:57:49.854Z,16.63
2023-03-11T07:00:26.073Z,14.97
2023-03-11T07:02:55.970Z,13.07
2023-03-11T07:05:24.269Z,13.67
2023-03-11T07:07:55.972Z,13.43
2023-03-11T07:10:24.070Z,13.40
2023-03-11T07:12:53.713Z,13.43
2023-03-11T07:15:22.946Z,13.83
2023-03-11T07:17:52.542Z,12.73
2023-03-11T07:20:22.777Z,15.93
2023-03-11T07:22:52.694Z,13.60
2023-03-11T07:25:21.687Z,14.50
2023-03-11T07:27:51.285Z,8.87
2023-03-11T07:30:20.678Z,10.00
2023-03-11T07:32:55.342Z,6.97
2023-03-11T07:35:26.254Z,10.17
2023-03-11T07:37:55.091Z,7.43
2023-03-11T07:40:23.397Z,9.20
2023-03-11T07:42:52.016Z,9.33
2023-03-11T07:45:20.256Z,7.63
2023-03-11T07:47:48.492Z,9.53
2023-03-11T07:50:17.607Z,11.23
2023-03-11T07:52:47.673Z,6.70
2023-03-11T07:55:16.100Z,7.43
2023-03-11T07:57:44.547Z,8.43
2023-03-11T08:00:14.279Z,9.07
2023-03-11T08:02:42.500Z,8.77
2023-03-11T08:05:11.701Z,9.90
2023-03-11T08:07:40.293Z,12.97
2023-03-11T08:10:11.412Z,10.47
2023-03-11T08:12:39.660Z,9.10
2023-03-11T08:15:09.311Z,6.37
2023-03-11T08:17:37.414Z,10.40
2023-03-11T08:20:08.722Z,9.10
2023-03-11T08:22:43.410Z,8.10
2023-03-11T08:25:18.498Z,10.10
2023-03-11T08:27:46.819Z,7.17
2023-03-11T08:30:15.964Z,5.73
2023-03-11T08:32:44.093Z,6.27
2023-03-11T08:35:12.493Z,13.00
2023-03-11T08:37:41.218Z,4.70
2023-03-11T08:40:10.926Z,8.07
2023-03-11T08:42:40.700Z,5.27
2023-03-11T08:45:10.831Z,8.53
2023-03-11T08:47:40.136Z,4.50
2023-03-11T08:50:14.810Z,5.93
2023-03-11T08:52:43.287Z,6.77
2023-03-11T08:55:14.386Z,10.33
2023-03-11T08:57:44.047Z,6.30
2023-03-11T09:00:14.383Z,6.93
2023-03-11T09:02:43.368Z,3.30
2023-03-11T09:05:11.921Z,6.77
2023-03-11T09:07:39.964Z,5.67
2023-03-11T09:10:09.608Z,3.83
2023-03-11T09:12:37.978Z,10.23
2023-03-11T09:15:09.471Z,5.20
2023-03-11T09:17:38.252Z,11.87
2023-03-11T09:20:10.730Z,1.87
2023-03-11T09:22:39.041Z,5.47
2023-03-11T09:25:08.655Z,5.07
2023-03-11T09:27:36.825Z,3.63
2023-03-11T09:30:05.694Z,1.63
2023-03-11T09:32:37.188Z,2.50
2023-03-11T09:35:06.424Z,9.27
2023-03-11T09:37:35.982Z,3.30
2023-03-11T09:40:05.109Z,4.37
2023-03-11T09:42:39.535Z,5.17
2023-03-11T09:45:14.968Z,7.10
2023-03-11T09:47:57.109Z,7.13
2023-03-11T09:50:34.318Z,5.77
2023-03-11T09:53:19.657Z,4.83
2023-03-11T09:55:50.327Z,5.23
2023-03-11T09:58:24.225Z,4.70
2023-03-11T10:00:54.441Z,4.93
2023-03-11T10:03:33.944Z,3.37
2023-03-11T10:06:10.029Z,3.87
2023-03-11T10:08:44.630Z,10.13
2023-03-11T10:11:24.961Z,2.63
2023-03-11T10:14:02.912Z,4.30
2023-03-11T10:16:38.687Z,4.40
2023-03-11T10:19:17.086Z,5.77
2023-03-11T10:21:54.320Z,4.57
2023-03-11T10:24:45.837Z,4.47
2023-03-11T10:27:17.481Z,8.03
2023-03-11T10:29:54.910Z,7.73
2023-03-11T10:32:27.456Z,5.70
2023-03-11T10:35:04.115Z,3.33
2023-03-11T10:37:48.744Z,3.17
2023-03-11T10:40:24.424Z,10.53
2023-03-11T10:42:55.371Z,4.73
2023-03-11T10:45:24.613Z,7.80
2023-03-11T10:47:52.773Z,4.87
2023-03-11T10:50:22.298Z,4.23
2023-03-11T10:53:07.986Z,5.97
2023-03-11T10:55:37.877Z,7.73
2023-03-11T10:58:09.218Z,5.63
2023-03-11T11:00:37.356Z,5.53
2023-03-11T11:03:06.885Z,5.40
2023-03-11T11:05:36.710Z,13.93
2023-03-11T11:08:08.151Z,3.83
2023-03-11T11:10:37.256Z,6.30
2023-03-11T11:13:18.678Z,3.87
2023-03-11T11:15:55.956Z,2.63
2023-03-11T11:18:27.633Z,4.60
2023-03-11T11:21:02.069Z,5.27
2023-03-11T11:23:39.437Z,9.30
2023-03-11T11:26:15.267Z,4.23
2023-03-11T11:28:44.402Z,6.80
2023-03-11T11:31:24.332Z,3.60
2023-03-11T11:33:54.758Z,4.40
2023-03-11T11:36:28.793Z,6.63
2023-03-11T11:38:57.767Z,4.93
2023-03-11T11:41:29.113Z,2.93
2023-03-11T11:44:01.438Z,3.43
2023-03-11T11:46:33.764Z,3.90
2023-03-11T11:49:12.582Z,7.27
2023-03-11T11:51:48.177Z,3.53
2023-03-11T11:57:37.506Z,5.30
2023-03-11T12:00:16.193Z,5.20
2023-03-11T12:02:57.752Z,5.93
2023-03-11T12:05:31.139Z,4.57
2023-03-11T12:08:11.620Z,4.40
2023-03-11T12:10:47.591Z,5.67
2023-03-11T12:13:32.243Z,6.13
2023-03-11T12:16:06.951Z,5.60
2023-03-11T12:18:40.937Z,6.95
2023-03-11T12:21:23.783Z,4.85
2023-03-11T12:24:08.564Z,5.97
2023-03-11T12:26:40.376Z,5.93
2023-03-11T12:29:16.587Z,5.70
2023-03-11T12:31:46.173Z,7.80
2023-03-11T12:34:19.329Z,7.65
2023-03-11T12:36:49.651Z,5.60
2023-03-11T12:39:29.075Z,5.35
2023-03-11T12:42:25.229Z,5.88
2023-03-11T12:44:53.976Z,2.22
2023-03-11T12:47:35.585Z,5.70
2023-03-11T12:50:39.741Z,5.22
2023-03-11T12:53:16.118Z,5.18
2023-03-11T12:56:03.801Z,3.83
2023-03-11T12:59:02.079Z,2.92
2023-03-11T13:01:58.055Z,4.45
2023-03-11T13:04:41.493Z,5.05
2023-03-11T13:07:33.918Z,2.58
2023-03-11T13:10:07.005Z,4.03
2023-03-11T13:12:48.501Z,3.38
2023-03-11T13:15:42.970Z,5.15
2023-03-11T13:18:19.597Z,5.05
2023-03-11T13:20:51.831Z,5.03
2023-03-11T13:23:39.632Z,5.85
2023-03-11T13:26:38.376Z,8.00
2023-03-11T13:29:53.759Z,4.45
2023-03-11T13:32:35.685Z,3.22
2023-03-11T13:35:23.826Z,1.83
2023-03-11T13:38:13.375Z,4.43
2023-03-11T13:40:43.767Z,4.22
2023-03-11T13:43:50.850Z,2.70
2023-03-11T13:46:32.612Z,4.38
2023-03-11T13:51:45.021Z,2.38
2023-03-11T13:54:29.979Z,9.02
2023-03-11T13:57:00.871Z,3.97
2023-03-11T13:59:30.500Z,3.60
2023-03-11T14:02:02.829Z,2.78
2023-03-11T14:04:33.513Z,3.55
2023-03-11T14:07:01.941Z,3.25
2023-03-11T14:09:30.352Z,2.28
2023-03-11T14:12:07.785Z,1.80
2023-03-11T14:14:49.555Z,6.20
2023-03-11T14:17:21.420Z,5.05
2023-03-11T14:20:10.410Z,1.20
2023-03-11T14:22:39.872Z,2.63
2023-03-11T14:25:11.464Z,3.30
2023-03-11T14:27:40.555Z,2.17
2023-03-11T14:30:10.983Z,3.20
2023-03-11T14:32:41.619Z,2.90
2023-03-11T14:35:21.506Z,2.05
2023-03-11T14:37:50.107Z,3.85
2023-03-11T14:40:26.776Z,1.77
2023-03-11T14:42:57.447Z,5.45
2023-03-11T14:45:29.092Z,7.07
2023-03-11T14:48:03.557Z,3.05
2023-03-11T14:50:35.316Z,6.00
2023-03-11T14:53:10.598Z,4.53
2023-03-11T14:55:41.461Z,5.68
2023-03-11T14:58:16.226Z,6.82
2023-03-11T15:00:50.510Z,3.00
2023-03-11T15:03:26.082Z,5.90
2023-03-11T15:05:57.790Z,1.52
2023-03-11T15:08:32.119Z,3.60
2023-03-11T15:11:10.067Z,3.50
2023-03-11T15:13:40.432Z,5.22
2023-03-11T15:16:24.126Z,5.15
2023-03-11T15:18:55.455Z,4.55
2023-03-11T15:21:25.500Z,3.90
2023-03-11T15:23:57.232Z,4.57
2023-03-11T15:26:27.191Z,3.65
2023-03-11T15:28:57.960Z,3.10
2023-03-11T15:31:35.969Z,2.88
2023-03-11T15:34:25.618Z,2.90
2023-03-11T15:37:04.063Z,2.78
2023-03-11T15:39:47.067Z,3.92
2023-03-11T15:42:26.443Z,3.55
2023-03-11T15:45:15.119Z,4.50
2023-03-11T15:47:43.593Z,5.10
2023-03-11T15:50:24.494Z,4.03
2023-03-11T15:52:54.618Z,2.47
2023-03-11T15:55:23.664Z,3.88
2023-03-11T15:57:55.010Z,3.03
2023-03-11T16:00:27.353Z,3.63
2023-03-11T16:02:56.312Z,4.80
2023-03-11T16:05:26.611Z,2.30
2023-03-11T16:07:54.903Z,3.53
2023-03-11T16:10:25.779Z,3.00
2023-03-11T16:12:54.788Z,6.82
2023-03-11T16:15:28.775Z,6.00
2023-03-11T16:17:58.794Z,3.97
2023-03-11T16:20:30.494Z,1.95
2023-03-11T16:23:01.381Z,2.85
2023-03-11T16:25:33.366Z,3.13
2023-03-11T16:28:02.731Z,6.75
2023-03-11T16:30:33.328Z,5.22
2023-03-11T16:33:04.481Z,6.20
2023-03-11T16:35:35.736Z,3.63
2023-03-11T16:38:04.288Z,5.28
2023-03-11T16:40:32.851Z,2.88
2023-03-11T16:43:03.887Z,4.18
2023-03-11T16:45:32.320Z,3.60
2023-03-11T16:48:00.353Z,7.32
2023-03-11T16:50:29.087Z,5.15
2023-03-11T16:52:59.906Z,10.23
2023-03-11T16:55:28.900Z,7.57
2023-03-11T16:57:58.037Z,4.38
2023-03-11T17:00:26.667Z,6.22
2023-03-11T17:02:55.100Z,6.07
2023-03-11T17:05:24.880Z,7.05
2023-03-11T17:08:00.049Z,3.95
2023-03-11T17:10:30.226Z,6.70
2023-03-11T17:12:58.905Z,4.97
2023-03-11T17:15:27.279Z,3.20
2023-03-11T17:17:55.803Z,6.88
2023-03-11T17:20:24.175Z,5.97
2023-03-11T17:22:52.848Z,6.90
2023-03-11T17:25:21.136Z,5.70
2023-03-11T17:27:51.217Z,8.63
2023-03-11T17:30:35.632Z,6.00
2023-03-11T17:33:05.275Z,5.27
2023-03-11T17:35:33.849Z,3.80
2023-03-11T17:38:02.291Z,10.00
2023-03-11T17:40:31.720Z,3.23
2023-03-11T17:43:02.069Z,4.60
2023-03-11T17:45:30.559Z,5.00
2023-03-11T17:47:59.206Z,4.60
2023-03-11T17:50:27.506Z,4.30
2023-03-11T17:52:56.564Z,3.87
2023-03-11T17:55:24.900Z,5.83
2023-03-11T17:57:54.387Z,3.30
2023-03-11T18:00:24.451Z,3.63
2023-03-11T18:02:52.787Z,5.20
2023-03-11T18:05:21.769Z,9.47
2023-03-11T18:07:51.818Z,4.33
2023-03-11T18:10:21.538Z,7.57
2023-03-11T18:12:50.257Z,8.30
2023-03-11T18:15:20.024Z,8.37
2023-03-11T18:17:50.273Z,7.97
2023-03-11T18:20:18.760Z,9.23
2023-03-11T18:22:47.353Z,4.00
2023-03-11T18:25:15.885Z,8.87
2023-03-11T18:27:44.069Z,9.33
2023-03-11T18:30:14.846Z,9.80
2023-03-11T18:32:43.323Z,5.60
2023-03-11T18:35:14.254Z,13.27
2023-03-11T18:37:42.559Z,9.13
2023-03-11T18:40:12.423Z,9.23
2023-03-11T18:42:40.627Z,6.43
2023-03-11T18:45:12.232Z,6.40
2023-03-11T18:47:40.948Z,4.97
2023-03-11T18:50:10.601Z,9.10
2023-03-11T18:52:40.330Z,7.73
2023-03-11T18:55:09.056Z,6.73
2023-03-11T18:57:40.457Z,7.57
2023-03-11T19:00:09.879Z,11.03
2023-03-11T19:02:38.357Z,6.30
2023-03-11T19:05:07.688Z,6.63
2023-03-11T19:07:36.045Z,9.70
2023-03-11T19:10:06.479Z,6.17
2023-03-11T19:12:35.050Z,6.93
2023-03-11T19:15:03.512Z,8.77
2023-03-11T19:17:31.991Z,10.27
2023-03-11T19:20:00.252Z,7.87
2023-03-11T19:22:28.550Z,10.23
2023-03-11T19:24:56.777Z,12.43
2023-03-11T19:27:26.559Z,12.00
2023-03-11T19:29:54.623Z,10.93
2023-03-11T19:32:22.999Z,14.27
2023-03-11T19:34:51.349Z,9.03
2023-03-11T19:37:19.720Z,11.20
2023-03-11T19:39:47.914Z,12.60
2023-03-11T19:42:16.178Z,12.47
2023-03-11T19:44:45.601Z,11.10
2023-03-11T19:47:13.734Z,12.57
2023-03-11T19:49:41.824Z,9.97
2023-03-11T19:52:10.071Z,10.47
2023-03-11T19:54:38.480Z,10.83
2023-03-11T19:57:06.490Z,12.97
2023-03-11T19:59:34.547Z,14.57
2023-03-11T20:02:05.994Z,11.17
2023-03-11T20:04:34.956Z,15.90
2023-03-11T20:07:03.302Z,13.13
2023-03-11T20:09:33.018Z,15.37
2023-03-11T20:12:01.282Z,11.00
2023-03-11T20:14:29.708Z,10.30
2023-03-11T20:16:58.907Z,11.43
2023-03-11T20:19:28.898Z,10.87
2023-03-11T20:21:57.100Z,10.80
2023-03-11T20:24:25.118Z,10.00
2023-03-11T20:26:53.437Z,14.37
2023-03-11T20:29:22.360Z,8.17
2023-03-11T20:31:52.351Z,8.33
2023-03-11T20:34:20.646Z,7.63
2023-03-11T20:36:52.326Z,10.40
2023-03-11T20:39:20.594Z,11.30
2023-03-11T20:41:48.752Z,10.47
2023-03-11T20:44:18.020Z,10.43
2023-03-11T20:46:50.310Z,12.37
2023-03-11T20:49:18.522Z,10.63
2023-03-11T20:51:48.172Z,14.17
2023-03-11T20:54:19.084Z,10.00
2023-03-11T20:56:49.113Z,14.63
2023-03-11T20:59:17.799Z,11.30
2023-03-11T21:01:46.180Z,13.27
2023-03-11T21:04:16.645Z,13.13
2023-03-11T21:06:45.184Z,11.20
2023-03-11T21:09:14.721Z,15.03
2023-03-11T21:11:44.608Z,15.73
2023-03-11T21:14:15.993Z,11.77
2023-03-11T21:16:45.230Z,11.30
2023-03-11T21:19:14.099Z,10.93
2023-03-11T21:21:43.301Z,12.13
2023-03-11T21:24:12.465Z,13.00
2023-03-11T21:26:41.053Z,14.27
2023-03-11T21:29:10.786Z,12.87
2023-03-11T21:31:39.382Z,9.73
2023-03-11T21:34:07.719Z,12.17
2023-03-11T21:36:38.217Z,10.47
2023-03-11T21:39:07.016Z,11.40
2023-03-11T21:41:35.551Z,12.73
2023-03-11T21:44:03.816Z,11.87
2023-03-11T21:46:34.200Z,17.83
2023-03-11T21:49:02.639Z,12.70
2023-03-11T21:51:31.272Z,11.83
2023-03-11T21:54:00.356Z,10.53
2023-03-11T21:56:30.012Z,9.23
2023-03-11T21:58:58.247Z,11.90
2023-03-11T22:01:26.413Z,9.13
2023-03-11T22:03:56.709Z,12.23
2023-03-11T22:06:24.867Z,10.13
2023-03-11T22:08:53.199Z,10.00
2023-03-11T22:11:21.696Z,11.60
2023-03-11T22:13:52.155Z,9.47
2023-03-11T22:16:21.431Z,16.93
2023-03-11T22:18:50.040Z,11.97
2023-03-11T22:21:20.623Z,8.23
2023-03-11T22:23:50.097Z,8.80
2023-03-11T22:26:18.074Z,9.93
2023-03-11T22:28:46.245Z,9.60
2023-03-11T22:31:18.732Z,13.13
2023-03-11T22:33:47.223Z,12.40
2023-03-11T22:36:15.581Z,10.47
2023-03-11T22:38:45.260Z,9.90
2023-03-11T22:41:16.734Z,8.23
2023-03-11T22:43:45.186Z,8.07
2023-03-11T22:46:13.558Z,11.07
2023-03-11T22:48:41.665Z,11.57
2023-03-11T22:51:09.928Z,7.60
2023-03-11T22:53:38.350Z,8.57
2023-03-11T22:56:13.603Z,7.53
2023-03-11T22:58:41.621Z,9.93
2023-03-11T23:01:10.433Z,9.87
2023-03-11T23:03:39.381Z,6.57
2023-03-11T23:06:09.972Z,7.30
2023-03-11T23:08:38.513Z,10.10
2023-03-11T23:11:09.644Z,7.37
2023-03-11T23:13:40.056Z,6.57
2023-03-11T23:16:10.976Z,9.90
2023-03-11T23:18:39.649Z,8.57
2023-03-11T23:21:16.238Z,10.67
2023-03-11T23:23:44.551Z,11.90
2023-03-11T23:26:14.154Z,6.80
2023-03-11T23:28:44.392Z,8.37
2023-03-11T23:31:14.465Z,10.93
2023-03-11T23:33:43.562Z,10.00
2023-03-11T23:36:14.213Z,7.70
2023-03-11T23:38:42.415Z,8.00
2023-03-11T23:41:12.601Z,9.47
2023-03-11T23:43:40.831Z,9.27
2023-03-11T23:46:11.595Z,7.93
2023-03-11T23:48:40.916Z,11.47
2023-03-11T23:51:09.767Z,11.40
2023-03-11T23:53:39.148Z,8.37
2023-03-11T23:56:11.542Z,10.77
2023-03-11T23:58:39.738Z,10.40
